Track Паламарчук Федя

Time Latitude Longitude Accuracy (66% radius in meters) Altitude (meters) Speed (km/hour) Bearing (degrees) Battery (%) GPS flag
07:04:40 57.201066 60.111191 3 315.522216797 1.0645560026169 52.803951263428 74 1 delete
07:04:30 57.201018 60.111038 3 313.990631104 1.3368459939957 55.209308624268 74 1 delete
07:04:22 57.200961 60.110892 3 311.664550781 1.2149070501328 46.389289855957 74 1 delete
07:04:14 57.200904 60.110756 3 310.87701416 1.2452449798584 49.425399780273 74 1 delete
07:04:04 57.200854 60.110608 3 310.60244751 1.2122540473938 54.621097564697 74 1 delete
07:03:42 57.200794 60.110470 3 310.7550354 1.3182979822159 60.070838928223 74 1 delete
07:03:31 57.200723 60.110337 3 310.547424316 1.2703380584717 56.574794769287 74 1 delete
07:03:23 57.200673 60.110192 3.2580258846283 308.727386475 0.9853829741478 27.922924041748 74 1 delete
07:02:58 57.200649 60.110028 3 304.788421631 0.91207301616669 42.414875030518 74 1 delete
07:02:46 57.200606 60.109874 3 303.249206543 1.3976800441742 53.08776473999 74 1 delete
07:02:37 57.200565 60.109705 3.3827819824219 303.755737305 1.0439050197601 42.516845703125 74 1 delete
07:02:29 57.200509 60.109555 3 302.84387207 1.4942330121994 48.695621490479 74 1 delete
07:02:22 57.200443 60.109412 3.1931579113007 302.072937012 1.2883839607239 28.520290374756 74 1 delete
07:02:16 57.200372 60.109301 3 303.199584961 0.97386699914932 31.996463775635 74 1 delete
07:02:04 57.200315 60.109154 3 305.368682861 1.2900589704514 22.914138793945 74 1 delete
07:01:56 57.200253 60.109034 3 305.179382324 1.1767580509186 46.239337921143 74 1 delete
07:01:50 57.200198 60.108902 3 304.177764893 1.2642530202866 18.772987365723 74 1 delete
07:01:44 57.200112 60.108794 3 303.747680664 1.2045650482178 16.957664489746 74 1 delete
07:01:38 57.200020 60.108716 3 303.679962158 0.84394699335098 348.21017456055 74 1 delete
07:01:32 57.199926 60.108696 3 304.064697266 1.449166059494 344.99389648438 74 1 delete
07:01:27 57.199829 60.108721 3 301.985717773 0.66684699058533 347.49111938477 74 1 delete
07:01:00 57.199738 60.108674 3 300.471038818 1.8409949541092 3.2430949211121 74 1 delete
07:00:53 57.199653 60.108726 3 300.55408845 4.10098695755 338.04397583008 74 1 delete
07:00:51 57.199571 60.108802 3 301.016292551 4.7230682373047 332.18218994141 74 1 delete
07:00:50 57.199459 60.108840 3 301.495452881 1.1692550182343 312.61016845703 74 1 delete
07:00:45 57.199367 60.108844 3 302.079650879 1.1314619779587 16.709243774414 74 1 delete
07:00:40 57.199288 60.108728 3 301.277252197 1.567971944809 30.146381378174 74 1 delete
07:00:35 57.199217 60.108623 3 301.303466797 1.1305240392685 42.252212524414 74 1 delete
07:00:30 57.199129 60.108554 3 302.75112915 1.4732520580292 6.8733439445496 74 1 delete
07:00:23 57.199032 60.108493 3 302.929779053 1.2392289638519 50.337856292725 74 1 delete
07:00:15 57.199009 60.108328 3 301.960906982 1.4821779727936 76.042633056641 74 1 delete
07:00:08 57.198989 60.108147 3 301.228210449 1.5359719991684 51.920322418213 74 1 delete
06:59:51 57.198934 60.107993 3 301.028900146 1.1707520484924 75.187950134277 74 1 delete
06:59:43 57.198965 60.107832 3 300.435150146 1.513985991478 133.02491760254 74 1 delete
06:59:37 57.199039 60.107714 3 298.757354736 1.5021929740906 113.37132263184 74 1 delete
06:59:32 57.199130 60.107630 3 298.806762695 1.4910110235214 144.84805297852 74 1 delete
06:59:27 57.199234 60.107591 3 300.146728516 0.99001801013947 164.71241760254 74 1 delete
06:59:21 57.199322 60.107561 3 299.929473877 1.6397860050201 141.74633789062 74 1 delete
06:59:14 57.199363 60.107410 3 299.068969727 1.4578499794006 97.568351745605 74 1 delete
06:59:06 57.199344 60.107246 3 300.005645752 1.4709329605103 50.949028015137 74 1 delete
06:59:00 57.199341 60.107073 3 298.728149414 1.8760199546814 86.300849914551 74 1 delete
06:58:56 57.199352 60.106909 3 298.663024902 1.847785949707 109.81836700439 74 1 delete
06:58:51 57.199354 60.106698 3 298.130279541 1.8547140359879 66.210960388184 74 1 delete
06:58:44 57.199298 60.106545 3 295.474273682 1.4812289476395 49.026943206787 74 1 delete
06:58:39 57.199205 60.106442 3 294.6769104 1.3763790130615 50.129062652588 74 1 delete
06:58:35 57.199115 60.106381 3 293.537628174 1.1846189498901 354.79940795898 74 1 delete
06:58:31 57.199014 60.106355 3 293.051330566 1.9641360044479 5.3497090339661 74 1 delete
06:58:27 57.198910 60.106305 3 292.895172119 1.4716819524765 14.766700744629 74 1 delete
06:58:23 57.198804 60.106259 3 293.529205322 1.5600329637527 13.727958679199 74 1 delete
06:58:19 57.198692 60.106232 3 293.815002441 1.7711369991302 6.4992828369141 74 1 delete